createdAt,value
2017-12-23T00:01:26.881Z,6.90
2017-12-23T00:03:54.360Z,6.60
2017-12-23T00:06:22.612Z,6.50
2017-12-23T00:08:50.083Z,6.80
2017-12-23T00:11:17.569Z,6.80
2017-12-23T00:13:45.051Z,6.50
2017-12-23T00:16:12.528Z,6.60
2017-12-23T00:18:39.991Z,6.50
2017-12-23T00:21:08.232Z,6.40
2017-12-23T00:23:35.707Z,6.30
2017-12-23T00:26:03.186Z,6.40
2017-12-23T00:28:31.438Z,6.50
2017-12-23T00:30:58.945Z,6.30
2017-12-23T00:33:27.182Z,6.60
2017-12-23T00:35:54.754Z,6.70
2017-12-23T00:38:22.251Z,6.60
2017-12-23T00:40:49.734Z,6.80
2017-12-23T00:43:17.207Z,6.50
2017-12-23T00:45:44.666Z,6.50
2017-12-23T00:48:12.148Z,6.60
2017-12-23T00:50:39.632Z,6.60
2017-12-23T00:53:07.880Z,6.70
2017-12-23T00:55:35.351Z,6.70
2017-12-23T00:58:04.293Z,6.90
2017-12-23T01:00:31.779Z,6.70
2017-12-23T01:02:59.272Z,6.70
2017-12-23T01:05:26.747Z,6.80
2017-12-23T01:07:55.002Z,6.80
2017-12-23T01:10:22.479Z,6.80
2017-12-23T01:12:50.731Z,6.70
2017-12-23T01:15:18.211Z,6.70
2017-12-23T01:17:46.458Z,6.60
2017-12-23T01:20:13.922Z,7.00
2017-12-23T01:22:41.399Z,6.70
2017-12-23T01:25:08.862Z,6.70
2017-12-23T01:27:37.115Z,6.70
2017-12-23T01:30:04.590Z,6.70
2017-12-23T01:32:32.072Z,7.00
2017-12-23T01:35:00.303Z,6.70
2017-12-23T01:37:27.782Z,6.70
2017-12-23T01:39:55.249Z,6.70
2017-12-23T01:42:22.721Z,6.70
2017-12-23T01:44:50.980Z,6.70
2017-12-23T01:47:18.455Z,6.60
2017-12-23T01:49:46.698Z,6.70
2017-12-23T01:52:14.172Z,6.60
2017-12-23T01:54:41.652Z,6.80
2017-12-23T01:57:09.906Z,6.70
2017-12-23T01:59:37.367Z,6.60
2017-12-23T02:02:04.850Z,6.80
2017-12-23T02:04:33.093Z,6.60
2017-12-23T02:07:00.574Z,7.00
2017-12-23T02:09:28.812Z,6.90
2017-12-23T02:11:56.298Z,6.60
2017-12-23T02:14:23.775Z,6.70
2017-12-23T02:16:52.022Z,6.60
2017-12-23T02:19:19.496Z,6.80
2017-12-23T02:21:46.976Z,6.70
2017-12-23T02:24:15.216Z,6.50
2017-12-23T02:26:42.686Z,6.30
2017-12-23T02:29:10.150Z,6.50
2017-12-23T02:31:38.398Z,6.30
2017-12-23T02:34:05.884Z,6.30
2017-12-23T02:36:34.124Z,6.10
2017-12-23T02:39:01.610Z,6.00
2017-12-23T02:41:29.079Z,6.20
2017-12-23T02:43:56.556Z,6.30
2017-12-23T02:46:24.799Z,6.20
2017-12-23T02:48:52.280Z,6.20
2017-12-23T02:51:20.560Z,6.10
2017-12-23T02:53:48.808Z,6.20
2017-12-23T02:56:16.292Z,6.40
2017-12-23T02:58:44.552Z,6.20
2017-12-23T03:01:12.108Z,6.30
2017-12-23T03:03:39.583Z,6.20
2017-12-23T03:06:07.825Z,6.50
2017-12-23T03:08:35.395Z,6.20
2017-12-23T03:11:02.872Z,6.40
2017-12-23T03:13:30.346Z,6.40
2017-12-23T03:15:58.595Z,6.70
2017-12-23T03:18:26.072Z,6.60
2017-12-23T03:20:54.310Z,6.50
2017-12-23T03:23:21.775Z,6.70
2017-12-23T03:25:49.262Z,6.50
2017-12-23T03:28:17.511Z,6.60
2017-12-23T03:30:44.988Z,6.50
2017-12-23T03:33:12.473Z,6.60
2017-12-23T03:35:39.935Z,6.60
2017-12-23T03:38:07.419Z,6.60
2017-12-23T03:40:34.912Z,6.70
2017-12-23T03:43:02.372Z,6.60
2017-12-23T03:45:30.610Z,6.80
2017-12-23T03:47:58.088Z,6.70
2017-12-23T03:50:25.565Z,6.90
2017-12-23T03:52:53.815Z,7.00
2017-12-23T03:55:21.307Z,6.90
2017-12-23T03:57:49.559Z,7.00
2017-12-23T04:00:17.132Z,6.90
2017-12-23T04:02:44.620Z,7.10
2017-12-23T04:05:12.886Z,7.00
2017-12-23T04:07:41.146Z,7.20
2017-12-23T04:10:08.614Z,7.20
2017-12-23T04:12:36.844Z,7.20
2017-12-23T04:15:04.325Z,7.40
2017-12-23T04:17:31.888Z,7.30
2017-12-23T04:19:59.356Z,7.40
2017-12-23T04:22:26.831Z,7.40
2017-12-23T04:24:55.075Z,7.30
2017-12-23T04:27:22.639Z,7.50
2017-12-23T04:29:50.125Z,7.30
2017-12-23T04:32:18.355Z,7.30
2017-12-23T04:34:45.853Z,7.60
2017-12-23T04:37:14.083Z,7.40
2017-12-23T04:39:41.607Z,7.40
2017-12-23T04:42:09.070Z,7.40
2017-12-23T04:44:36.553Z,7.40
2017-12-23T04:47:04.020Z,7.40
2017-12-23T04:49:31.495Z,7.30
2017-12-23T04:51:59.010Z,7.40
2017-12-23T04:54:27.215Z,7.40
2017-12-23T04:56:54.702Z,7.60
2017-12-23T04:59:22.183Z,7.50
2017-12-23T05:01:49.659Z,7.50
2017-12-23T05:04:17.125Z,7.60
2017-12-23T05:06:44.603Z,7.60
2017-12-23T05:09:12.084Z,7.80
2017-12-23T05:11:40.343Z,7.80
2017-12-23T05:14:07.835Z,7.90
2017-12-23T05:16:36.098Z,7.90
2017-12-23T05:19:05.195Z,8.10
2017-12-23T05:21:32.659Z,8.20
2017-12-23T05:24:00.916Z,8.00
2017-12-23T05:26:28.375Z,8.00
2017-12-23T05:28:55.848Z,8.00
2017-12-23T05:31:23.323Z,8.00
2017-12-23T05:33:51.572Z,8.10
2017-12-23T05:36:19.035Z,8.10
2017-12-23T05:38:46.507Z,8.10
2017-12-23T05:41:14.743Z,8.20
2017-12-23T05:43:42.321Z,8.40
2017-12-23T05:46:11.288Z,8.20
2017-12-23T05:48:38.771Z,8.30
2017-12-23T05:51:06.243Z,8.20
2017-12-23T05:53:33.706Z,8.20
2017-12-23T05:56:01.984Z,8.20
2017-12-23T05:58:30.239Z,8.10
2017-12-23T06:00:57.717Z,8.20
2017-12-23T06:03:25.947Z,8.00
2017-12-23T06:05:53.444Z,8.20
2017-12-23T06:08:20.912Z,8.10
2017-12-23T06:10:49.166Z,8.20
2017-12-23T06:13:16.631Z,8.20
2017-12-23T06:15:44.875Z,8.10
2017-12-23T06:18:12.353Z,8.10
2017-12-23T06:20:39.922Z,8.10
2017-12-23T06:23:07.381Z,8.10
2017-12-23T06:25:34.868Z,8.10
2017-12-23T06:28:03.098Z,8.00
2017-12-23T06:30:30.576Z,8.20
2017-12-23T06:32:58.034Z,8.10
2017-12-23T06:35:25.584Z,8.10
2017-12-23T06:37:53.823Z,8.20
2017-12-23T06:40:21.309Z,8.20
2017-12-23T06:42:48.766Z,8.20
2017-12-23T06:45:16.235Z,8.20
2017-12-23T06:47:43.699Z,8.30
2017-12-23T06:50:11.200Z,8.30
2017-12-23T06:52:38.655Z,8.30
2017-12-23T06:55:06.156Z,8.30
2017-12-23T06:57:33.748Z,8.30
2017-12-23T07:00:01.236Z,8.40
2017-12-23T07:02:28.711Z,8.50
2017-12-23T07:04:56.191Z,8.40
2017-12-23T07:07:23.655Z,8.40
2017-12-23T07:09:51.131Z,8.50
2017-12-23T07:12:18.613Z,8.50
2017-12-23T07:14:46.855Z,8.60
2017-12-23T07:17:14.624Z,8.90
2017-12-23T07:19:42.112Z,8.60
2017-12-23T07:22:10.352Z,8.50
2017-12-23T07:24:37.835Z,8.60
2017-12-23T07:27:06.086Z,8.60
2017-12-23T07:29:33.663Z,8.60
2017-12-23T07:32:02.633Z,8.70
2017-12-23T07:34:30.155Z,8.50
2017-12-23T07:36:57.630Z,8.60
2017-12-23T07:39:25.112Z,8.60
2017-12-23T07:41:52.583Z,8.70
2017-12-23T07:44:21.576Z,8.70
2017-12-23T07:46:49.057Z,8.50
2017-12-23T07:49:17.300Z,8.70
2017-12-23T07:51:44.759Z,9.10
2017-12-23T07:54:12.231Z,8.70
2017-12-23T07:56:39.703Z,8.70
2017-12-23T07:59:07.255Z,8.70
2017-12-23T08:01:34.740Z,8.70
2017-12-23T08:04:02.982Z,8.70
2017-12-23T08:06:30.547Z,8.50
2017-12-23T08:08:58.015Z,8.70
2017-12-23T08:11:26.254Z,8.70
2017-12-23T08:13:53.715Z,8.70
2017-12-23T08:16:21.195Z,8.70
2017-12-23T08:18:48.659Z,8.80
2017-12-23T08:21:16.136Z,8.80
2017-12-23T08:23:44.392Z,8.90
2017-12-23T08:26:11.859Z,9.10
2017-12-23T08:28:39.339Z,8.90
2017-12-23T08:31:07.608Z,8.90
2017-12-23T08:33:35.852Z,9.00
2017-12-23T08:36:03.325Z,8.90
2017-12-23T08:38:37.101Z,9.00
2017-12-23T08:41:04.567Z,9.00
2017-12-23T08:43:32.032Z,9.00
2017-12-23T08:45:59.512Z,9.10
2017-12-23T08:48:27.744Z,9.20
2017-12-23T08:50:55.219Z,9.40
2017-12-23T08:53:23.187Z,9.20
2017-12-23T08:55:50.665Z,9.30
2017-12-23T08:58:18.160Z,9.30
2017-12-23T09:00:45.688Z,9.40
2017-12-23T09:03:13.920Z,9.30
2017-12-23T09:05:41.383Z,9.50
2017-12-23T09:08:08.855Z,9.20
2017-12-23T09:10:36.334Z,9.20
2017-12-23T09:13:03.800Z,9.20
2017-12-23T09:15:31.267Z,9.20
2017-12-23T09:17:58.724Z,9.20
2017-12-23T09:20:26.195Z,9.30
2017-12-23T09:22:54.434Z,9.30
2017-12-23T09:25:21.908Z,9.30
2017-12-23T09:27:50.187Z,9.40
2017-12-23T09:30:19.182Z,9.70
2017-12-23T09:32:46.637Z,9.30
2017-12-23T09:35:14.096Z,9.50
2017-12-23T09:37:41.592Z,9.40
2017-12-23T09:40:09.068Z,9.40
2017-12-23T09:42:36.551Z,9.40
2017-12-23T09:45:04.017Z,9.40
2017-12-23T09:47:31.493Z,9.40
2017-12-23T09:49:58.962Z,9.30
2017-12-23T09:52:27.205Z,9.30
2017-12-23T09:54:54.665Z,9.20
2017-12-23T09:57:22.137Z,9.30
2017-12-23T09:59:49.609Z,9.30
2017-12-23T10:02:18.230Z,9.30
2017-12-23T10:04:46.544Z,9.20
2017-12-23T10:07:14.032Z,9.30
2017-12-23T10:09:41.491Z,9.30
2017-12-23T10:12:09.739Z,9.30
2017-12-23T10:14:37.198Z,9.30
2017-12-23T10:17:04.782Z,9.40
2017-12-23T10:19:33.107Z,9.40
2017-12-23T10:22:00.597Z,9.30
2017-12-23T10:24:28.047Z,9.40
2017-12-23T10:26:55.536Z,9.40
2017-12-23T10:29:24.073Z,9.40
2017-12-23T10:31:51.544Z,9.60
2017-12-23T10:34:19.061Z,9.40
2017-12-23T10:36:46.518Z,9.40
2017-12-23T10:39:14.052Z,9.40
2017-12-23T10:41:41.510Z,9.50
2017-12-23T10:44:08.979Z,9.40
2017-12-23T10:46:37.204Z,9.50
2017-12-23T10:49:04.893Z,9.60
2017-12-23T10:51:32.372Z,9.50
2017-12-23T10:54:00.610Z,9.50
2017-12-23T10:56:28.088Z,9.40
2017-12-23T10:58:55.643Z,9.50
2017-12-23T11:01:23.107Z,9.60
2017-12-23T11:03:51.413Z,9.60
2017-12-23T11:06:18.904Z,9.60
2017-12-23T11:08:46.739Z,9.50
2017-12-23T11:11:15.012Z,9.60
2017-12-23T11:13:49.046Z,9.60
2017-12-23T11:16:16.546Z,9.60
2017-12-23T11:18:44.070Z,9.60
2017-12-23T11:21:11.576Z,9.60
2017-12-23T11:23:39.065Z,9.50
2017-12-23T11:26:07.398Z,9.50
2017-12-23T11:28:34.906Z,9.50
2017-12-23T11:31:03.164Z,9.50
2017-12-23T11:33:31.401Z,9.50
2017-12-23T11:35:58.894Z,9.60
2017-12-23T11:38:26.365Z,9.40
2017-12-23T11:40:54.681Z,9.30
2017-12-23T11:43:22.196Z,9.30
2017-12-23T11:45:49.755Z,9.30
2017-12-23T11:48:17.613Z,9.20
2017-12-23T11:50:45.854Z,9.30
2017-12-23T11:53:13.351Z,9.40
2017-12-23T11:55:41.602Z,9.30
2017-12-23T11:58:09.112Z,9.30
2017-12-23T12:00:36.650Z,9.30
2017-12-23T12:03:04.112Z,9.30
2017-12-23T12:05:31.601Z,9.30
2017-12-23T12:07:59.479Z,9.30
2017-12-23T12:10:26.954Z,9.30
2017-12-23T12:12:54.432Z,9.30
2017-12-23T12:15:22.003Z,9.40
2017-12-23T12:17:49.471Z,9.40
2017-12-23T12:20:16.975Z,9.40
2017-12-23T12:22:45.288Z,9.50
2017-12-23T12:25:12.922Z,9.60
2017-12-23T12:27:40.443Z,9.50
2017-12-23T12:30:08.700Z,9.40
2017-12-23T12:32:36.214Z,9.30
2017-12-23T12:35:03.765Z,9.50
2017-12-23T12:37:31.247Z,9.50
2017-12-23T12:39:58.726Z,9.40
2017-12-23T12:42:27.730Z,9.30
2017-12-23T12:44:55.204Z,9.40
2017-12-23T12:47:23.444Z,9.50
2017-12-23T12:49:50.955Z,9.30
2017-12-23T12:52:18.443Z,9.50
2017-12-23T12:54:45.924Z,9.50
2017-12-23T12:57:13.388Z,9.50
2017-12-23T12:59:40.864Z,9.40
2017-12-23T13:02:08.331Z,9.40
2017-12-23T13:04:36.603Z,9.40
2017-12-23T13:07:04.855Z,9.40
2017-12-23T13:09:32.339Z,9.40
2017-12-23T13:12:00.601Z,9.50
2017-12-23T13:14:28.087Z,9.40
2017-12-23T13:16:56.337Z,9.50
2017-12-23T13:19:23.799Z,9.60
2017-12-23T13:21:51.351Z,9.50
2017-12-23T13:24:18.923Z,9.50
2017-12-23T13:26:47.155Z,9.50
2017-12-23T13:29:14.632Z,9.60
2017-12-23T13:31:42.109Z,9.40
2017-12-23T13:34:09.595Z,9.50
2017-12-23T13:36:37.927Z,9.50
2017-12-23T13:39:05.473Z,9.40
2017-12-23T13:41:32.959Z,9.60
2017-12-23T13:44:00.439Z,9.60
2017-12-23T13:46:28.691Z,9.60
2017-12-23T13:48:56.272Z,9.40
2017-12-23T13:51:24.508Z,9.60
2017-12-23T13:53:52.374Z,9.60
2017-12-23T13:56:19.843Z,9.50
2017-12-23T13:58:47.338Z,9.50
2017-12-23T14:01:15.626Z,9.60
2017-12-23T14:03:43.888Z,9.60
2017-12-23T14:06:12.168Z,9.60
2017-12-23T14:08:39.682Z,9.70
2017-12-23T14:11:07.205Z,9.60
2017-12-23T14:13:34.706Z,9.60
2017-12-23T14:16:02.265Z,9.60
2017-12-23T14:18:29.756Z,9.60
2017-12-23T14:20:58.408Z,9.60
2017-12-23T14:23:25.951Z,9.60
2017-12-23T14:25:53.424Z,9.60
2017-12-23T14:28:20.898Z,9.60
2017-12-23T14:30:49.176Z,9.60
2017-12-23T14:33:17.440Z,9.60
2017-12-23T14:35:44.931Z,9.60
2017-12-23T14:38:12.432Z,9.50
2017-12-23T14:40:39.918Z,9.50
2017-12-23T14:43:07.428Z,9.60
2017-12-23T14:45:35.232Z,9.60
2017-12-23T14:48:02.723Z,9.50
2017-12-23T14:50:30.254Z,9.50
2017-12-23T14:52:57.769Z,9.40
2017-12-23T14:55:25.319Z,9.50
2017-12-23T14:57:52.901Z,9.50
2017-12-23T15:00:20.432Z,9.50
2017-12-23T15:02:47.912Z,9.50
2017-12-23T15:05:16.168Z,9.50
2017-12-23T15:07:44.617Z,9.40
2017-12-23T15:10:12.102Z,9.40
2017-12-23T15:12:39.609Z,9.40
2017-12-23T15:15:07.092Z,9.40
2017-12-23T15:17:34.594Z,9.50
2017-12-23T15:20:02.885Z,9.50
2017-12-23T15:22:30.388Z,9.70
2017-12-23T15:24:57.880Z,9.60
2017-12-23T15:27:25.383Z,9.60
2017-12-23T15:29:52.856Z,9.60
2017-12-23T15:32:20.403Z,9.50
2017-12-23T15:34:47.872Z,9.50
2017-12-23T15:37:15.368Z,9.50
2017-12-23T15:39:44.359Z,9.60
2017-12-23T15:42:11.842Z,9.60
2017-12-23T15:44:40.094Z,9.60
2017-12-23T15:47:08.364Z,9.60
2017-12-23T15:49:35.868Z,9.40
2017-12-23T15:52:03.365Z,9.60
2017-12-23T15:54:30.832Z,9.60
2017-12-23T15:56:58.307Z,9.50
2017-12-23T15:59:25.806Z,9.50
2017-12-23T16:01:53.279Z,9.60
2017-12-23T16:04:20.761Z,9.60
2017-12-23T16:06:48.246Z,9.60
2017-12-23T16:09:15.755Z,9.60
2017-12-23T16:11:43.314Z,9.50
2017-12-23T16:14:10.792Z,9.40
2017-12-23T16:16:38.256Z,9.50
2017-12-23T16:19:06.807Z,9.50
2017-12-23T16:21:34.304Z,9.50
2017-12-23T16:24:01.812Z,9.50
2017-12-23T16:26:30.046Z,9.50
2017-12-23T16:28:57.548Z,9.40
2017-12-23T16:31:25.034Z,9.40
2017-12-23T16:33:52.511Z,9.40
2017-12-23T16:36:20.031Z,9.50
2017-12-23T16:38:47.505Z,9.40
2017-12-23T16:41:15.040Z,9.50
2017-12-23T16:43:42.560Z,9.40
2017-12-23T16:46:10.136Z,9.30
2017-12-23T16:48:37.669Z,9.40
2017-12-23T16:51:05.135Z,9.30
2017-12-23T16:53:32.675Z,9.30
2017-12-23T16:56:00.148Z,9.30
2017-12-23T16:58:27.661Z,9.30
2017-12-23T17:00:55.195Z,9.40
2017-12-23T17:03:22.768Z,9.30
2017-12-23T17:05:51.015Z,9.30
2017-12-23T17:08:18.505Z,9.50
2017-12-23T17:10:46.730Z,9.30
2017-12-23T17:13:14.210Z,9.20
2017-12-23T17:15:41.681Z,9.30
2017-12-23T17:18:09.483Z,9.30
2017-12-23T17:20:36.976Z,9.30
2017-12-23T17:23:04.763Z,9.20
2017-12-23T17:25:32.242Z,9.30
2017-12-23T17:27:59.737Z,9.30
2017-12-23T17:30:32.017Z,9.30
2017-12-23T17:32:59.526Z,9.30
2017-12-23T17:35:28.488Z,9.30
2017-12-23T17:37:57.113Z,9.70
2017-12-23T17:40:25.894Z,9.40
2017-12-23T17:42:55.041Z,9.40
2017-12-23T17:45:22.576Z,9.30
2017-12-23T17:47:50.101Z,9.40
2017-12-23T17:50:19.104Z,9.40
2017-12-23T17:52:47.347Z,9.40
2017-12-23T17:55:14.820Z,9.30
2017-12-23T17:57:42.288Z,9.40
2017-12-23T18:00:10.543Z,9.30
2017-12-23T18:02:38.024Z,9.40
2017-12-23T18:05:05.494Z,9.30
2017-12-23T18:07:33.001Z,9.20
2017-12-23T18:10:00.487Z,9.10
2017-12-23T18:12:27.962Z,9.10
2017-12-23T18:14:55.439Z,9.10
2017-12-23T18:17:23.676Z,9.10
2017-12-23T18:19:51.978Z,9.10
2017-12-23T18:22:20.239Z,9.10
2017-12-23T18:24:47.730Z,9.10
2017-12-23T18:27:15.234Z,9.10
2017-12-23T18:29:42.714Z,9.10
2017-12-23T18:32:10.176Z,9.10
2017-12-23T18:34:37.663Z,9.10
2017-12-23T18:37:05.180Z,9.20
2017-12-23T18:39:32.652Z,9.20
2017-12-23T18:42:00.190Z,9.30
2017-12-23T18:44:27.668Z,9.30
2017-12-23T18:46:55.165Z,9.30
2017-12-23T18:49:22.734Z,9.30
2017-12-23T18:51:50.208Z,9.40
2017-12-23T18:54:17.688Z,9.40
2017-12-23T18:56:45.155Z,9.40
2017-12-23T18:59:13.423Z,9.40
2017-12-23T19:01:40.894Z,9.40
2017-12-23T19:04:08.405Z,9.40
2017-12-23T19:06:35.855Z,9.50
2017-12-23T19:09:03.370Z,9.50
2017-12-23T19:11:30.925Z,9.60
2017-12-23T19:13:58.483Z,9.60
2017-12-23T19:16:37.920Z,9.70
2017-12-23T19:19:05.416Z,9.80
2017-12-23T19:21:33.652Z,9.60
2017-12-23T19:24:01.176Z,9.60
2017-12-23T19:26:28.658Z,9.60
2017-12-23T19:28:56.181Z,9.50
2017-12-23T19:31:23.660Z,9.50
2017-12-23T19:33:51.356Z,9.40
2017-12-23T19:36:18.857Z,9.40
2017-12-23T19:38:47.100Z,9.30
2017-12-23T19:41:16.094Z,9.50
2017-12-23T19:43:44.399Z,9.40
2017-12-23T19:46:12.293Z,9.50
2017-12-23T19:48:39.774Z,9.40
2017-12-23T19:51:07.302Z,9.40
2017-12-23T19:53:34.779Z,9.40
2017-12-23T19:56:02.306Z,9.40
2017-12-23T19:58:30.534Z,9.30
2017-12-23T20:00:58.057Z,9.40
2017-12-23T20:03:25.525Z,9.30
2017-12-23T20:05:53.050Z,9.30
2017-12-23T20:08:20.572Z,9.40
2017-12-23T20:10:48.079Z,9.40
2017-12-23T20:13:16.363Z,9.40
2017-12-23T20:15:43.893Z,9.40
2017-12-23T20:18:11.382Z,9.30
2017-12-23T20:20:38.881Z,9.30
2017-12-23T20:23:06.368Z,9.30
2017-12-23T20:25:34.638Z,9.30
2017-12-23T20:28:02.945Z,9.30
2017-12-23T20:30:31.206Z,9.30
2017-12-23T20:33:02.803Z,9.30
2017-12-23T20:35:30.996Z,9.30
2017-12-23T20:37:58.484Z,9.30
2017-12-23T20:40:25.955Z,9.30
2017-12-23T20:42:54.211Z,9.30
2017-12-23T20:45:21.707Z,9.50
2017-12-23T20:47:49.227Z,9.30
2017-12-23T20:50:16.722Z,9.30
2017-12-23T20:52:44.963Z,9.30
2017-12-23T20:55:12.504Z,9.30
2017-12-23T20:57:39.968Z,9.30
2017-12-23T21:00:07.474Z,9.30
2017-12-23T21:02:35.704Z,9.30
2017-12-23T21:05:03.292Z,9.40
2017-12-23T21:07:30.758Z,9.30
2017-12-23T21:09:58.239Z,9.30
2017-12-23T21:12:25.742Z,9.30
2017-12-23T21:14:53.334Z,9.40
2017-12-23T21:17:21.580Z,9.30
2017-12-23T21:19:49.063Z,9.50
2017-12-23T21:22:16.524Z,9.30
2017-12-23T21:24:44.778Z,9.30
2017-12-23T21:27:12.256Z,9.50
2017-12-23T21:29:39.723Z,9.30
2017-12-23T21:32:07.959Z,9.30
2017-12-23T21:34:35.439Z,9.40
2017-12-23T21:37:02.906Z,9.30
2017-12-23T21:39:31.160Z,9.30
2017-12-23T21:41:58.735Z,9.60
2017-12-23T21:44:27.719Z,9.50
2017-12-23T21:46:55.278Z,9.40
2017-12-23T21:49:22.758Z,9.30
2017-12-23T21:51:50.225Z,9.30
2017-12-23T21:54:18.460Z,9.20
2017-12-23T21:56:45.940Z,9.40
2017-12-23T21:59:13.409Z,9.30
2017-12-23T22:01:41.939Z,9.30
2017-12-23T22:04:09.415Z,9.30
2017-12-23T22:06:36.984Z,9.20
2017-12-23T22:09:04.451Z,9.30
2017-12-23T22:11:31.927Z,9.30
2017-12-23T22:13:59.382Z,9.30
2017-12-23T22:16:26.860Z,9.30
2017-12-23T22:18:55.091Z,9.30
2017-12-23T22:21:22.575Z,9.60
2017-12-23T22:23:50.131Z,9.30
2017-12-23T22:26:17.619Z,9.40
2017-12-23T22:28:45.104Z,9.30
2017-12-23T22:31:12.608Z,9.40
2017-12-23T22:33:41.614Z,9.50
2017-12-23T22:36:09.081Z,9.50
2017-12-23T22:38:37.310Z,9.40
2017-12-23T22:41:04.887Z,9.30
2017-12-23T22:43:32.463Z,9.40
2017-12-23T22:46:00.699Z,9.40
2017-12-23T22:48:28.171Z,9.40
2017-12-23T22:50:55.635Z,9.40
2017-12-23T22:53:23.108Z,9.40
2017-12-23T22:55:50.607Z,9.40
2017-12-23T22:58:18.068Z,9.40
2017-12-23T23:00:49.517Z,9.50
2017-12-23T23:03:16.978Z,9.40
2017-12-23T23:05:44.458Z,9.40
2017-12-23T23:08:11.915Z,9.40
2017-12-23T23:10:39.392Z,9.40
2017-12-23T23:13:06.851Z,9.40
2017-12-23T23:15:34.319Z,9.40
2017-12-23T23:18:03.417Z,9.60
2017-12-23T23:20:31.652Z,9.40
2017-12-23T23:22:59.128Z,9.70
2017-12-23T23:25:26.599Z,9.50
2017-12-23T23:27:54.071Z,9.50
2017-12-23T23:30:23.076Z,9.60
2017-12-23T23:32:51.311Z,9.60
2017-12-23T23:35:18.780Z,9.50
2017-12-23T23:37:46.364Z,9.50
2017-12-23T23:40:13.850Z,9.50
2017-12-23T23:42:41.899Z,9.50
2017-12-23T23:45:09.440Z,9.50
2017-12-23T23:47:36.905Z,9.60
2017-12-23T23:50:05.410Z,9.50
2017-12-23T23:52:33.653Z,9.60
2017-12-23T23:55:01.131Z,9.60
2017-12-23T23:57:28.614Z,9.60
2017-12-23T23:59:56.119Z,9.60
